Time,TemperatureF,DewpointF,PressureIn,WindDirection,WindDirectionDegrees,WindSpeedMPH,WindSpeedGustMPH,Humidity,HourlyPrecipIn,Conditions,Clouds,dailyrainin,SoftwareType,DateUTC
2013-08-17 00:23:00,58.0,54.0,-100.00,NW,320,0.0,0.0,86,-99.99,,,-99.99,,2013-08-17 04:23:00,
2013-08-17 00:53:00,58.0,54.0,-100.00,North,355,0.0,1.0,87,-99.99,,,-99.99,,2013-08-17 04:53:00,
2013-08-17 01:13:00,58.0,54.0,-100.00,NNW,345,0.0,1.0,86,-99.99,,,-99.99,,2013-08-17 05:13:00,
2013-08-17 01:22:00,57.0,53.0,-100.00,North,350,0.0,0.0,88,-99.99,,,-99.99,,2013-08-17 05:22:00,
2013-08-17 01:52:00,57.0,54.0,-100.00,ENE,75,0.0,1.0,87,-99.99,,,-99.99,,2013-08-17 05:52:00,
2013-08-17 02:12:00,56.0,53.0,-100.00,ENE,75,0.0,0.0,88,-99.99,,,-99.99,,2013-08-17 06:12:00,
2013-08-17 02:21:00,55.0,53.0,-100.00,ENE,75,0.0,0.0,91,-99.99,,,-99.99,,2013-08-17 06:21:00,
2013-08-17 02:42:00,55.0,53.0,-100.00,ENE,75,0.0,1.0,91,-99.99,,,-99.99,,2013-08-17 06:42:00,
2013-08-17 02:52:00,57.0,54.0,-100.00,NNW,335,1.0,2.0,90,-99.99,,,-99.99,,2013-08-17 06:52:00,
2013-08-17 03:22:00,55.0,53.0,-100.00,NNW,340,0.0,0.0,92,-99.99,,,-99.99,,2013-08-17 07:22:00,
2013-08-17 03:52:00,54.0,52.0,-100.00,NNW,340,0.0,0.0,94,-99.99,,,-99.99,,2013-08-17 07:52:00,
2013-08-17 04:21:00,54.0,52.0,-100.00,NNW,340,0.0,1.0,95,-99.99,,,-99.99,,2013-08-17 08:21:00,
2013-08-17 04:42:00,54.0,52.0,-100.00,NNW,340,0.0,1.0,95,-99.99,,,-99.99,,2013-08-17 08:42:00,
2013-08-17 04:52:00,53.0,52.0,-100.00,NNW,340,0.0,0.0,96,-99.99,,,-99.99,,2013-08-17 08:52:00,
2013-08-17 05:21:00,53.0,52.0,-100.00,NNW,340,0.0,1.0,96,-99.99,,,-99.99,,2013-08-17 09:21:00,
2013-08-17 05:53:00,53.0,52.0,-100.00,NNW,340,0.0,1.0,96,-99.99,,,-99.99,,2013-08-17 09:53:00,
2013-08-17 06:03:00,53.0,52.0,-100.00,NNW,340,0.0,1.0,96,-99.99,,,-99.99,,2013-08-17 10:03:00,
2013-08-17 06:23:00,53.0,52.0,-100.00,NNW,340,0.0,1.0,96,-99.99,,,-99.99,,2013-08-17 10:23:00,
2013-08-17 06:52:00,53.0,51.0,-100.00,NW,320,0.0,1.0,95,-99.99,,,-99.99,,2013-08-17 10:52:00,
2013-08-17 07:22:00,53.0,52.0,-100.00,North,355,0.0,1.0,95,-99.99,,,-99.99,,2013-08-17 11:22:00,
2013-08-17 07:30:00,55.0,54.0,-100.00,North,0,1.0,3.0,95,-99.99,,,-99.99,,2013-08-17 11:30:00,
2013-08-17 07:32:00,53.0,52.0,-100.00,North,355,0.0,1.0,95,-99.99,,,-99.99,,2013-08-17 11:32:00,
2013-08-17 07:52:00,55.0,54.0,-100.00,North,0,1.0,3.0,95,-99.99,,,-99.99,,2013-08-17 11:52:00,
2013-08-17 08:01:00,55.0,54.0,-100.00,North,0,1.0,3.0,95,-99.99,,,-99.99,,2013-08-17 12:01:00,
2013-08-17 08:11:00,55.0,54.0,-100.00,North,0,1.0,3.0,95,-99.99,,,-99.99,,2013-08-17 12:11:00,
2013-08-17 08:21:00,55.0,54.0,-100.00,North,0,1.0,3.0,95,-99.99,,,-99.99,,2013-08-17 12:21:00,
2013-08-17 08:52:00,61.0,58.0,-100.00,North,5,2.0,2.0,89,-99.99,,,-99.99,,2013-08-17 12:52:00,
2013-08-17 09:21:00,63.0,58.0,-100.00,North,355,2.0,3.0,85,-99.99,,,-99.99,,2013-08-17 13:21:00,
2013-08-17 09:52:00,68.0,60.0,-100.00,ENE,65,3.0,4.0,76,-99.99,,,-99.99,,2013-08-17 13:52:00,
2013-08-17 10:21:00,69.0,61.0,-100.00,NNE,30,7.0,9.0,76,-99.99,,,-99.99,,2013-08-17 14:21:00,
2013-08-17 10:52:00,70.0,62.0,-100.00,NE,40,6.0,9.0,75,-99.99,,,-99.99,,2013-08-17 14:52:00,
2013-08-17 11:22:00,71.0,63.0,-100.00,NE,45,4.0,8.0,74,-99.99,,,-99.99,,2013-08-17 15:22:00,
2013-08-17 11:53:00,72.0,62.0,-100.00,ENE,70,7.0,12.0,70,-99.99,,,-99.99,,2013-08-17 15:53:00,
2013-08-17 12:23:00,74.0,64.0,-100.00,ENE,65,7.0,11.0,70,-99.99,,,-99.99,,2013-08-17 16:23:00,
2013-08-17 12:53:00,73.0,61.0,-100.00,NE,40,7.0,12.0,66,-99.99,,,-99.99,,2013-08-17 16:53:00,
2013-08-17 13:23:00,75.0,62.0,-100.00,NE,35,9.0,12.0,64,-99.99,,,-99.99,,2013-08-17 17:23:00,
2013-08-17 13:52:00,75.0,62.0,-100.00,NE,35,7.0,13.0,64,-99.99,,,-99.99,,2013-08-17 17:52:00,
2013-08-17 14:02:00,75.0,62.0,-100.00,NE,35,7.0,13.0,64,-99.99,,,-99.99,,2013-08-17 18:02:00,
2013-08-17 14:21:00,76.0,62.0,-100.00,NE,55,7.0,12.0,61,-99.99,,,-99.99,,2013-08-17 18:21:00,
2013-08-17 14:52:00,76.0,62.0,-100.00,ENE,65,9.0,14.0,62,-99.99,,,-99.99,,2013-08-17 18:52:00,
2013-08-17 15:01:00,76.0,62.0,-100.00,ENE,65,9.0,14.0,62,-99.99,,,-99.99,,2013-08-17 19:01:00,
2013-08-17 15:21:00,76.0,62.0,-100.00,ENE,75,6.0,12.0,60,-99.99,,,-99.99,,2013-08-17 19:21:00,
2013-08-17 15:52:00,77.0,61.0,-100.00,NE,40,5.0,12.0,57,-99.99,,,-99.99,,2013-08-17 19:52:00,
2013-08-17 16:11:00,76.0,61.0,-100.00,ENE,75,7.0,11.0,59,-99.99,,,-99.99,,2013-08-17 20:11:00,
2013-08-17 16:21:00,77.0,62.0,-100.00,ENE,60,7.0,15.0,60,-99.99,,,-99.99,,2013-08-17 20:21:00,
2013-08-17 16:52:00,76.0,61.0,-100.00,ENE,65,9.0,14.0,58,-99.99,,,-99.99,,2013-08-17 20:52:00,
2013-08-17 17:22:00,77.0,62.0,-100.00,ENE,75,6.0,11.0,59,-99.99,,,-99.99,,2013-08-17 21:22:00,
2013-08-17 17:42:00,77.0,63.0,-100.00,East,90,9.0,14.0,61,-99.99,,,-99.99,,2013-08-17 21:42:00,
2013-08-17 17:53:00,77.0,62.0,-100.00,ENE,60,7.0,12.0,59,-99.99,,,-99.99,,2013-08-17 21:53:00,
2013-08-17 18:03:00,77.0,62.0,-100.00,ENE,60,7.0,12.0,59,-99.99,,,-99.99,,2013-08-17 22:03:00,
2013-08-17 18:23:00,76.0,60.0,-100.00,NE,40,7.0,11.0,57,-99.99,,,-99.99,,2013-08-17 22:23:00,
2013-08-17 18:52:00,76.0,59.0,-100.00,NNE,30,8.0,12.0,56,-99.99,,,-99.99,,2013-08-17 22:52:00,
2013-08-17 19:22:00,75.0,59.0,-100.00,NE,35,7.0,10.0,57,-99.99,,,-99.99,,2013-08-17 23:22:00,
2013-08-17 19:32:00,75.0,59.0,-100.00,NE,35,7.0,10.0,57,-99.99,,,-99.99,,2013-08-17 23:32:00,
2013-08-17 19:52:00,74.0,60.0,-100.00,NNE,30,5.0,9.0,60,-99.99,,,-99.99,,2013-08-17 23:52:00,
2013-08-17 20:21:00,72.0,61.0,-100.00,ENE,60,3.0,6.0,66,-99.99,,,-99.99,,2013-08-18 00:21:00,
2013-08-17 20:32:00,72.0,61.0,-100.00,ENE,60,3.0,6.0,66,-99.99,,,-99.99,,2013-08-18 00:32:00,
2013-08-17 20:52:00,71.0,62.0,-100.00,NE,45,2.0,4.0,73,-99.99,,,-99.99,,2013-08-18 00:52:00,
2013-08-17 21:21:00,69.0,62.0,-100.00,NNE,30,1.0,3.0,77,-99.99,,,-99.99,,2013-08-18 01:21:00,
2013-08-17 21:42:00,67.0,62.0,-100.00,NNE,15,1.0,2.0,81,-99.99,,,-99.99,,2013-08-18 01:42:00,
2013-08-17 21:52:00,66.0,61.0,-100.00,NW,310,0.0,1.0,83,-99.99,,,-99.99,,2013-08-18 01:52:00,
2013-08-17 22:11:00,65.0,61.0,-100.00,NE,55,1.0,1.0,86,-99.99,,,-99.99,,2013-08-18 02:11:00,
2013-08-17 22:21:00,67.0,63.0,-100.00,NNE,25,1.0,2.0,85,-99.99,,,-99.99,,2013-08-18 02:21:00,
2013-08-17 22:52:00,66.0,62.0,-100.00,NNE,25,1.0,2.0,86,-99.99,,,-99.99,,2013-08-18 02:52:00,
2013-08-17 23:11:00,66.0,62.0,-100.00,NNE,15,1.0,2.0,86,-99.99,,,-99.99,,2013-08-18 03:11:00,
2013-08-17 23:21:00,66.0,62.0,-100.00,NNE,30,1.0,3.0,87,-99.99,,,-99.99,,2013-08-18 03:21:00,
2013-08-17 23:53:00,65.0,62.0,-100.00,ENE,60,1.0,2.0,89,-99.99,,,-99.99,,2013-08-18 03:53:00,